sensor_id;sensor_type;location;lat;lon;timestamp;P1;durP1;ratioP1;P2;durP2;ratioP2
25125;SDS011;13106;50.808;5.670;2023-11-19T00:00:27;1.83;;;0.77;;
25125;SDS011;13106;50.808;5.670;2023-11-19T00:02:54;1.27;;;0.70;;
25125;SDS011;13106;50.808;5.670;2023-11-19T00:05:19;1.58;;;0.93;;
25125;SDS011;13106;50.808;5.670;2023-11-19T00:07:46;1.52;;;0.90;;
25125;SDS011;13106;50.808;5.670;2023-11-19T00:10:13;1.17;;;0.70;;
25125;SDS011;13106;50.808;5.670;2023-11-19T00:12:43;1.30;;;0.60;;
25125;SDS011;13106;50.808;5.670;2023-11-19T00:15:09;1.40;;;0.83;;
25125;SDS011;13106;50.808;5.670;2023-11-19T00:17:38;1.45;;;1.00;;
25125;SDS011;13106;50.808;5.670;2023-11-19T00:20:11;1.30;;;0.80;;
25125;SDS011;13106;50.808;5.670;2023-11-19T00:22:37;1.42;;;1.00;;
25125;SDS011;13106;50.808;5.670;2023-11-19T00:25:04;1.60;;;1.00;;
25125;SDS011;13106;50.808;5.670;2023-11-19T00:27:30;2.60;;;1.20;;
25125;SDS011;13106;50.808;5.670;2023-11-19T00:29:56;1.58;;;1.00;;
25125;SDS011;13106;50.808;5.670;2023-11-19T00:32:23;2.13;;;1.20;;
25125;SDS011;13106;50.808;5.670;2023-11-19T00:34:49;2.53;;;1.20;;
25125;SDS011;13106;50.808;5.670;2023-11-19T00:37:16;2.22;;;1.30;;
25125;SDS011;13106;50.808;5.670;2023-11-19T00:39:42;2.60;;;1.35;;
25125;SDS011;13106;50.808;5.670;2023-11-19T00:42:11;2.33;;;1.42;;
25125;SDS011;13106;50.808;5.670;2023-11-19T00:44:37;2.70;;;1.50;;
25125;SDS011;13106;50.808;5.670;2023-11-19T00:47:03;3.40;;;1.40;;
25125;SDS011;13106;50.808;5.670;2023-11-19T00:49:30;3.00;;;1.80;;
25125;SDS011;13106;50.808;5.670;2023-11-19T00:51:57;3.88;;;1.45;;
25125;SDS011;13106;50.808;5.670;2023-11-19T00:54:24;3.85;;;1.50;;
25125;SDS011;13106;50.808;5.670;2023-11-19T00:56:53;3.42;;;1.52;;
25125;SDS011;13106;50.808;5.670;2023-11-19T00:59:20;1.98;;;1.45;;
25125;SDS011;13106;50.808;5.670;2023-11-19T01:01:46;3.10;;;1.55;;
25125;SDS011;13106;50.808;5.670;2023-11-19T01:04:16;2.78;;;1.50;;
25125;SDS011;13106;50.808;5.670;2023-11-19T01:06:42;3.55;;;1.50;;
25125;SDS011;13106;50.808;5.670;2023-11-19T01:09:08;5.70;;;1.92;;
25125;SDS011;13106;50.808;5.670;2023-11-19T01:11:34;5.07;;;1.90;;
25125;SDS011;13106;50.808;5.670;2023-11-19T01:14:01;3.60;;;1.38;;
25125;SDS011;13106;50.808;5.670;2023-11-19T01:16:27;5.63;;;1.80;;
25125;SDS011;13106;50.808;5.670;2023-11-19T01:18:53;5.05;;;1.60;;
25125;SDS011;13106;50.808;5.670;2023-11-19T01:21:19;5.55;;;2.10;;
25125;SDS011;13106;50.808;5.670;2023-11-19T01:23:47;4.90;;;1.90;;
25125;SDS011;13106;50.808;5.670;2023-11-19T01:26:13;4.53;;;1.63;;
25125;SDS011;13106;50.808;5.670;2023-11-19T01:28:39;4.37;;;1.67;;
25125;SDS011;13106;50.808;5.670;2023-11-19T01:31:08;8.55;;;7.85;;
25125;SDS011;13106;50.808;5.670;2023-11-19T01:33:35;7.43;;;1.75;;
25125;SDS011;13106;50.808;5.670;2023-11-19T01:36:02;4.85;;;1.50;;
25125;SDS011;13106;50.808;5.670;2023-11-19T01:38:29;5.15;;;1.70;;
25125;SDS011;13106;50.808;5.670;2023-11-19T01:40:56;7.40;;;1.90;;
25125;SDS011;13106;50.808;5.670;2023-11-19T01:43:36;6.88;;;2.53;;
25125;SDS011;13106;50.808;5.670;2023-11-19T01:46:02;6.28;;;2.13;;
25125;SDS011;13106;50.808;5.670;2023-11-19T01:48:30;7.95;;;2.03;;
25125;SDS011;13106;50.808;5.670;2023-11-19T01:50:56;6.85;;;2.22;;
25125;SDS011;13106;50.808;5.670;2023-11-19T01:53:22;7.05;;;2.13;;
25125;SDS011;13106;50.808;5.670;2023-11-19T01:55:49;5.60;;;1.90;;
25125;SDS011;13106;50.808;5.670;2023-11-19T01:58:15;8.70;;;1.93;;
25125;SDS011;13106;50.808;5.670;2023-11-19T02:00:41;6.03;;;1.88;;
25125;SDS011;13106;50.808;5.670;2023-11-19T02:03:08;6.97;;;1.90;;
25125;SDS011;13106;50.808;5.670;2023-11-19T02:05:34;8.75;;;2.28;;
25125;SDS011;13106;50.808;5.670;2023-11-19T02:08:01;8.10;;;1.80;;
25125;SDS011;13106;50.808;5.670;2023-11-19T02:10:28;9.63;;;2.10;;
25125;SDS011;13106;50.808;5.670;2023-11-19T02:12:54;10.35;;;2.63;;
25125;SDS011;13106;50.808;5.670;2023-11-19T02:15:20;10.02;;;2.13;;
25125;SDS011;13106;50.808;5.670;2023-11-19T02:17:49;11.50;;;2.33;;
25125;SDS011;13106;50.808;5.670;2023-11-19T02:20:16;6.20;;;2.05;;
25125;SDS011;13106;50.808;5.670;2023-11-19T02:22:42;9.63;;;2.25;;
25125;SDS011;13106;50.808;5.670;2023-11-19T02:25:42;9.68;;;2.28;;
25125;SDS011;13106;50.808;5.670;2023-11-19T02:28:02;11.03;;;2.27;;
25125;SDS011;13106;50.808;5.670;2023-11-19T02:30:29;13.30;;;2.50;;
25125;SDS011;13106;50.808;5.670;2023-11-19T02:32:57;11.32;;;2.22;;
25125;SDS011;13106;50.808;5.670;2023-11-19T02:35:24;10.90;;;2.20;;
25125;SDS011;13106;50.808;5.670;2023-11-19T02:37:51;10.73;;;2.40;;
25125;SDS011;13106;50.808;5.670;2023-11-19T02:40:17;8.55;;;2.40;;
25125;SDS011;13106;50.808;5.670;2023-11-19T02:42:43;11.05;;;2.40;;
25125;SDS011;13106;50.808;5.670;2023-11-19T02:45:09;11.32;;;2.50;;
25125;SDS011;13106;50.808;5.670;2023-11-19T02:47:42;10.02;;;2.30;;
25125;SDS011;13106;50.808;5.670;2023-11-19T02:50:09;8.02;;;2.40;;
25125;SDS011;13106;50.808;5.670;2023-11-19T02:52:42;10.40;;;2.45;;
25125;SDS011;13106;50.808;5.670;2023-11-19T02:55:08;12.05;;;2.40;;
25125;SDS011;13106;50.808;5.670;2023-11-19T02:57:35;11.25;;;2.20;;
25125;SDS011;13106;50.808;5.670;2023-11-19T03:00:01;11.27;;;2.30;;
25125;SDS011;13106;50.808;5.670;2023-11-19T03:02:37;13.20;;;2.50;;
25125;SDS011;13106;50.808;5.670;2023-11-19T03:05:09;10.27;;;2.47;;
25125;SDS011;13106;50.808;5.670;2023-11-19T03:07:36;10.15;;;2.22;;
25125;SDS011;13106;50.808;5.670;2023-11-19T03:10:02;13.70;;;2.70;;
25125;SDS011;13106;50.808;5.670;2023-11-19T03:12:30;15.00;;;2.63;;
25125;SDS011;13106;50.808;5.670;2023-11-19T03:14:56;14.65;;;2.67;;
25125;SDS011;13106;50.808;5.670;2023-11-19T03:17:22;15.77;;;3.20;;
25125;SDS011;13106;50.808;5.670;2023-11-19T03:19:49;21.17;;;3.17;;
25125;SDS011;13106;50.808;5.670;2023-11-19T03:22:15;12.73;;;2.72;;
25125;SDS011;13106;50.808;5.670;2023-11-19T03:24:41;15.68;;;3.05;;
25125;SDS011;13106;50.808;5.670;2023-11-19T03:27:07;15.40;;;3.08;;
25125;SDS011;13106;50.808;5.670;2023-11-19T03:29:33;12.03;;;2.63;;
25125;SDS011;13106;50.808;5.670;2023-11-19T03:31:59;13.70;;;2.53;;
25125;SDS011;13106;50.808;5.670;2023-11-19T03:34:25;14.13;;;2.72;;
25125;SDS011;13106;50.808;5.670;2023-11-19T03:36:51;13.43;;;2.45;;
25125;SDS011;13106;50.808;5.670;2023-11-19T03:39:17;12.82;;;2.55;;
25125;SDS011;13106;50.808;5.670;2023-11-19T03:41:45;13.32;;;2.45;;
25125;SDS011;13106;50.808;5.670;2023-11-19T03:44:12;13.35;;;2.50;;
25125;SDS011;13106;50.808;5.670;2023-11-19T03:46:38;9.75;;;2.33;;
25125;SDS011;13106;50.808;5.670;2023-11-19T03:49:04;12.88;;;2.65;;
25125;SDS011;13106;50.808;5.670;2023-11-19T03:51:32;10.05;;;2.53;;
25125;SDS011;13106;50.808;5.670;2023-11-19T03:54:01;10.80;;;2.47;;
25125;SDS011;13106;50.808;5.670;2023-11-19T03:56:27;10.70;;;2.50;;
25125;SDS011;13106;50.808;5.670;2023-11-19T03:58:53;11.48;;;2.40;;
25125;SDS011;13106;50.808;5.670;2023-11-19T04:01:19;14.45;;;2.70;;
25125;SDS011;13106;50.808;5.670;2023-11-19T04:03:45;13.90;;;2.55;;
25125;SDS011;13106;50.808;5.670;2023-11-19T04:06:11;12.73;;;2.42;;
25125;SDS011;13106;50.808;5.670;2023-11-19T04:08:37;12.98;;;2.42;;
25125;SDS011;13106;50.808;5.670;2023-11-19T04:11:04;12.65;;;2.58;;
25125;SDS011;13106;50.808;5.670;2023-11-19T04:13:30;13.63;;;2.45;;
25125;SDS011;13106;50.808;5.670;2023-11-19T04:15:56;9.68;;;2.35;;
25125;SDS011;13106;50.808;5.670;2023-11-19T04:18:22;12.65;;;2.47;;
25125;SDS011;13106;50.808;5.670;2023-11-19T04:20:48;13.98;;;2.63;;
25125;SDS011;13106;50.808;5.670;2023-11-19T04:23:16;14.55;;;2.60;;
25125;SDS011;13106;50.808;5.670;2023-11-19T04:25:42;18.38;;;2.88;;
25125;SDS011;13106;50.808;5.670;2023-11-19T04:28:08;16.02;;;2.67;;
25125;SDS011;13106;50.808;5.670;2023-11-19T04:30:34;16.65;;;2.78;;
25125;SDS011;13106;50.808;5.670;2023-11-19T04:33:00;13.73;;;2.75;;
25125;SDS011;13106;50.808;5.670;2023-11-19T04:35:26;12.30;;;2.33;;
25125;SDS011;13106;50.808;5.670;2023-11-19T04:37:52;18.90;;;3.42;;
25125;SDS011;13106;50.808;5.670;2023-11-19T04:40:22;14.98;;;2.80;;
25125;SDS011;13106;50.808;5.670;2023-11-19T04:42:48;16.58;;;2.97;;
25125;SDS011;13106;50.808;5.670;2023-11-19T04:45:15;16.15;;;2.63;;
25125;SDS011;13106;50.808;5.670;2023-11-19T04:47:41;14.55;;;2.80;;
25125;SDS011;13106;50.808;5.670;2023-11-19T04:50:07;13.32;;;2.75;;
25125;SDS011;13106;50.808;5.670;2023-11-19T04:52:37;13.30;;;2.70;;
25125;SDS011;13106;50.808;5.670;2023-11-19T04:55:05;14.82;;;2.75;;
25125;SDS011;13106;50.808;5.670;2023-11-19T04:57:31;13.68;;;2.97;;
25125;SDS011;13106;50.808;5.670;2023-11-19T04:59:58;15.25;;;2.90;;
25125;SDS011;13106;50.808;5.670;2023-11-19T05:02:24;16.57;;;2.93;;
25125;SDS011;13106;50.808;5.670;2023-11-19T05:04:50;17.23;;;3.08;;
25125;SDS011;13106;50.808;5.670;2023-11-19T05:07:16;16.83;;;2.85;;
25125;SDS011;13106;50.808;5.670;2023-11-19T05:09:42;16.35;;;2.72;;
25125;SDS011;13106;50.808;5.670;2023-11-19T05:12:08;16.63;;;2.90;;
25125;SDS011;13106;50.808;5.670;2023-11-19T05:14:37;17.63;;;3.38;;
25125;SDS011;13106;50.808;5.670;2023-11-19T05:17:03;16.70;;;3.20;;
25125;SDS011;13106;50.808;5.670;2023-11-19T05:19:29;13.35;;;3.28;;
25125;SDS011;13106;50.808;5.670;2023-11-19T05:21:55;13.95;;;2.80;;
25125;SDS011;13106;50.808;5.670;2023-11-19T05:24:21;17.60;;;3.33;;
25125;SDS011;13106;50.808;5.670;2023-11-19T05:26:48;21.08;;;3.33;;
25125;SDS011;13106;50.808;5.670;2023-11-19T05:29:15;17.73;;;3.47;;
25125;SDS011;13106;50.808;5.670;2023-11-19T05:31:42;18.08;;;3.60;;
25125;SDS011;13106;50.808;5.670;2023-11-19T05:34:08;17.10;;;2.95;;
25125;SDS011;13106;50.808;5.670;2023-11-19T05:36:34;18.35;;;3.47;;
25125;SDS011;13106;50.808;5.670;2023-11-19T05:39:00;15.95;;;3.10;;
25125;SDS011;13106;50.808;5.670;2023-11-19T05:41:26;17.50;;;3.28;;
25125;SDS011;13106;50.808;5.670;2023-11-19T05:43:52;15.43;;;3.30;;
25125;SDS011;13106;50.808;5.670;2023-11-19T05:46:18;15.02;;;2.92;;
25125;SDS011;13106;50.808;5.670;2023-11-19T05:48:44;18.65;;;3.55;;
25125;SDS011;13106;50.808;5.670;2023-11-19T05:51:11;14.48;;;2.83;;
25125;SDS011;13106;50.808;5.670;2023-11-19T05:53:39;16.13;;;2.92;;
25125;SDS011;13106;50.808;5.670;2023-11-19T05:56:05;17.90;;;3.00;;
25125;SDS011;13106;50.808;5.670;2023-11-19T05:58:34;12.85;;;2.70;;
25125;SDS011;13106;50.808;5.670;2023-11-19T06:01:01;14.43;;;2.50;;
25125;SDS011;13106;50.808;5.670;2023-11-19T06:03:28;15.13;;;2.58;;
25125;SDS011;13106;50.808;5.670;2023-11-19T06:05:54;15.32;;;2.95;;
25125;SDS011;13106;50.808;5.670;2023-11-19T06:08:20;16.92;;;3.22;;
25125;SDS011;13106;50.808;5.670;2023-11-19T06:10:46;17.52;;;3.05;;
25125;SDS011;13106;50.808;5.670;2023-11-19T06:13:14;17.73;;;3.20;;
25125;SDS011;13106;50.808;5.670;2023-11-19T06:15:41;15.77;;;3.45;;
25125;SDS011;13106;50.808;5.670;2023-11-19T06:18:07;16.55;;;3.03;;
25125;SDS011;13106;50.808;5.670;2023-11-19T06:20:33;18.00;;;3.00;;
25125;SDS011;13106;50.808;5.670;2023-11-19T06:23:00;17.35;;;3.40;;
25125;SDS011;13106;50.808;5.670;2023-11-19T06:25:26;14.35;;;3.03;;
25125;SDS011;13106;50.808;5.670;2023-11-19T06:27:53;19.38;;;3.75;;
25125;SDS011;13106;50.808;5.670;2023-11-19T06:30:19;20.33;;;3.30;;
25125;SDS011;13106;50.808;5.670;2023-11-19T06:32:48;18.60;;;3.67;;
25125;SDS011;13106;50.808;5.670;2023-11-19T06:35:14;23.80;;;3.80;;
25125;SDS011;13106;50.808;5.670;2023-11-19T06:37:40;20.65;;;3.70;;
25125;SDS011;13106;50.808;5.670;2023-11-19T06:40:07;21.20;;;3.13;;
25125;SDS011;13106;50.808;5.670;2023-11-19T06:42:34;18.48;;;3.90;;
25125;SDS011;13106;50.808;5.670;2023-11-19T06:45:00;19.80;;;3.58;;
25125;SDS011;13106;50.808;5.670;2023-11-19T06:47:27;28.20;;;4.82;;
25125;SDS011;13106;50.808;5.670;2023-11-19T06:49:53;22.08;;;4.13;;
25125;SDS011;13106;50.808;5.670;2023-11-19T06:52:19;24.92;;;4.45;;
25125;SDS011;13106;50.808;5.670;2023-11-19T06:54:45;22.92;;;4.20;;
25125;SDS011;13106;50.808;5.670;2023-11-19T06:57:11;21.65;;;3.90;;
25125;SDS011;13106;50.808;5.670;2023-11-19T06:59:38;21.23;;;4.25;;
25125;SDS011;13106;50.808;5.670;2023-11-19T07:02:04;22.73;;;4.13;;
25125;SDS011;13106;50.808;5.670;2023-11-19T07:04:30;20.95;;;3.60;;
25125;SDS011;13106;50.808;5.670;2023-11-19T07:06:56;18.90;;;3.15;;
25125;SDS011;13106;50.808;5.670;2023-11-19T07:09:22;15.85;;;3.35;;
25125;SDS011;13106;50.808;5.670;2023-11-19T07:11:48;16.77;;;3.05;;
25125;SDS011;13106;50.808;5.670;2023-11-19T07:14:18;20.00;;;3.83;;
25125;SDS011;13106;50.808;5.670;2023-11-19T07:16:44;14.63;;;3.03;;
25125;SDS011;13106;50.808;5.670;2023-11-19T07:19:15;16.27;;;3.13;;
25125;SDS011;13106;50.808;5.670;2023-11-19T07:21:41;17.42;;;3.40;;
25125;SDS011;13106;50.808;5.670;2023-11-19T07:24:12;18.95;;;3.33;;
25125;SDS011;13106;50.808;5.670;2023-11-19T07:26:42;18.65;;;4.47;;
25125;SDS011;13106;50.808;5.670;2023-11-19T07:29:08;16.08;;;4.38;;
25125;SDS011;13106;50.808;5.670;2023-11-19T07:31:35;23.20;;;3.70;;
25125;SDS011;13106;50.808;5.670;2023-11-19T07:34:01;19.00;;;3.90;;
25125;SDS011;13106;50.808;5.670;2023-11-19T07:36:27;20.00;;;4.20;;
25125;SDS011;13106;50.808;5.670;2023-11-19T07:38:53;23.38;;;6.95;;
25125;SDS011;13106;50.808;5.670;2023-11-19T07:41:22;30.15;;;7.93;;
25125;SDS011;13106;50.808;5.670;2023-11-19T07:43:50;30.67;;;9.68;;
25125;SDS011;13106;50.808;5.670;2023-11-19T07:46:17;68.88;;;34.05;;
25125;SDS011;13106;50.808;5.670;2023-11-19T07:48:46;38.47;;;15.05;;
25125;SDS011;13106;50.808;5.670;2023-11-19T07:51:13;26.27;;;7.40;;
25125;SDS011;13106;50.808;5.670;2023-11-19T07:53:39;35.40;;;15.50;;
25125;SDS011;13106;50.808;5.670;2023-11-19T07:56:06;24.23;;;5.55;;
25125;SDS011;13106;50.808;5.670;2023-11-19T07:58:32;18.10;;;4.85;;
25125;SDS011;13106;50.808;5.670;2023-11-19T08:00:58;43.00;;;20.67;;
25125;SDS011;13106;50.808;5.670;2023-11-19T08:03:24;72.03;;;33.78;;
25125;SDS011;13106;50.808;5.670;2023-11-19T08:05:50;54.55;;;22.58;;
25125;SDS011;13106;50.808;5.670;2023-11-19T08:08:16;37.75;;;16.77;;
25125;SDS011;13106;50.808;5.670;2023-11-19T08:10:42;31.13;;;14.45;;
25125;SDS011;13106;50.808;5.670;2023-11-19T08:13:09;26.42;;;4.60;;
25125;SDS011;13106;50.808;5.670;2023-11-19T08:15:35;25.05;;;4.45;;
25125;SDS011;13106;50.808;5.670;2023-11-19T08:18:01;21.45;;;3.83;;
25125;SDS011;13106;50.808;5.670;2023-11-19T08:20:27;17.23;;;3.67;;
25125;SDS011;13106;50.808;5.670;2023-11-19T08:22:53;18.00;;;3.50;;
25125;SDS011;13106;50.808;5.670;2023-11-19T08:25:19;25.70;;;3.90;;
25125;SDS011;13106;50.808;5.670;2023-11-19T08:27:45;20.03;;;3.60;;
25125;SDS011;13106;50.808;5.670;2023-11-19T08:30:12;19.38;;;3.80;;
25125;SDS011;13106;50.808;5.670;2023-11-19T08:32:38;19.90;;;4.05;;
25125;SDS011;13106;50.808;5.670;2023-11-19T08:35:04;21.53;;;4.00;;
25125;SDS011;13106;50.808;5.670;2023-11-19T08:37:30;23.38;;;4.70;;
25125;SDS011;13106;50.808;5.670;2023-11-19T08:39:56;21.90;;;3.75;;
25125;SDS011;13106;50.808;5.670;2023-11-19T08:42:22;22.60;;;4.93;;
25125;SDS011;13106;50.808;5.670;2023-11-19T08:44:49;19.35;;;3.90;;
25125;SDS011;13106;50.808;5.670;2023-11-19T08:47:16;22.30;;;3.97;;
25125;SDS011;13106;50.808;5.670;2023-11-19T08:49:45;23.90;;;4.40;;
25125;SDS011;13106;50.808;5.670;2023-11-19T08:52:11;20.58;;;3.90;;
25125;SDS011;13106;50.808;5.670;2023-11-19T08:54:37;20.17;;;3.75;;
25125;SDS011;13106;50.808;5.670;2023-11-19T08:57:03;24.80;;;4.13;;
25125;SDS011;13106;50.808;5.670;2023-11-19T08:59:32;20.30;;;3.85;;
25125;SDS011;13106;50.808;5.670;2023-11-19T09:01:58;20.90;;;4.43;;
25125;SDS011;13106;50.808;5.670;2023-11-19T09:04:24;17.95;;;3.58;;
25125;SDS011;13106;50.808;5.670;2023-11-19T09:06:50;21.52;;;4.35;;
25125;SDS011;13106;50.808;5.670;2023-11-19T09:09:16;20.45;;;4.10;;
25125;SDS011;13106;50.808;5.670;2023-11-19T09:11:42;18.55;;;4.38;;
25125;SDS011;13106;50.808;5.670;2023-11-19T09:14:08;22.25;;;4.30;;
25125;SDS011;13106;50.808;5.670;2023-11-19T09:16:34;20.67;;;3.88;;
25125;SDS011;13106;50.808;5.670;2023-11-19T09:19:00;19.30;;;3.77;;
25125;SDS011;13106;50.808;5.670;2023-11-19T09:21:27;17.73;;;3.90;;
25125;SDS011;13106;50.808;5.670;2023-11-19T09:23:57;20.02;;;3.90;;
25125;SDS011;13106;50.808;5.670;2023-11-19T09:26:23;17.63;;;3.47;;
25125;SDS011;13106;50.808;5.670;2023-11-19T09:28:49;22.73;;;3.90;;
25125;SDS011;13106;50.808;5.670;2023-11-19T09:31:16;19.63;;;4.05;;
25125;SDS011;13106;50.808;5.670;2023-11-19T09:33:42;21.45;;;3.40;;
25125;SDS011;13106;50.808;5.670;2023-11-19T09:36:08;15.70;;;3.60;;
25125;SDS011;13106;50.808;5.670;2023-11-19T09:38:36;20.13;;;3.50;;
25125;SDS011;13106;50.808;5.670;2023-11-19T09:41:05;16.55;;;3.30;;
25125;SDS011;13106;50.808;5.670;2023-11-19T09:43:35;20.02;;;3.90;;
25125;SDS011;13106;50.808;5.670;2023-11-19T09:46:05;16.42;;;3.53;;
25125;SDS011;13106;50.808;5.670;2023-11-19T09:48:35;20.93;;;3.57;;
25125;SDS011;13106;50.808;5.670;2023-11-19T09:51:02;17.63;;;3.73;;
25125;SDS011;13106;50.808;5.670;2023-11-19T09:53:28;17.70;;;3.55;;
25125;SDS011;13106;50.808;5.670;2023-11-19T09:55:55;16.67;;;3.40;;
25125;SDS011;13106;50.808;5.670;2023-11-19T09:58:22;17.20;;;3.47;;
25125;SDS011;13106;50.808;5.670;2023-11-19T10:00:49;23.50;;;4.18;;
25125;SDS011;13106;50.808;5.670;2023-11-19T10:03:16;20.73;;;3.93;;
25125;SDS011;13106;50.808;5.670;2023-11-19T10:05:43;19.30;;;3.85;;
25125;SDS011;13106;50.808;5.670;2023-11-19T10:08:09;21.60;;;4.20;;
25125;SDS011;13106;50.808;5.670;2023-11-19T10:10:36;20.70;;;4.18;;
25125;SDS011;13106;50.808;5.670;2023-11-19T10:13:02;19.63;;;4.00;;
25125;SDS011;13106;50.808;5.670;2023-11-19T10:15:28;19.07;;;3.77;;
25125;SDS011;13106;50.808;5.670;2023-11-19T10:17:59;19.23;;;4.13;;
25125;SDS011;13106;50.808;5.670;2023-11-19T10:20:25;18.53;;;3.70;;
25125;SDS011;13106;50.808;5.670;2023-11-19T10:22:54;18.00;;;3.57;;
25125;SDS011;13106;50.808;5.670;2023-11-19T10:25:24;17.20;;;3.00;;
25125;SDS011;13106;50.808;5.670;2023-11-19T10:27:51;15.27;;;3.15;;
25125;SDS011;13106;50.808;5.670;2023-11-19T10:30:21;16.08;;;3.05;;
25125;SDS011;13106;50.808;5.670;2023-11-19T10:35:35;14.07;;;2.58;;
25125;SDS011;13106;50.808;5.670;2023-11-19T10:38:12;16.38;;;2.92;;
25125;SDS011;13106;50.808;5.670;2023-11-19T10:40:39;16.73;;;3.20;;
25125;SDS011;13106;50.808;5.670;2023-11-19T10:43:05;19.53;;;4.10;;
25125;SDS011;13106;50.808;5.670;2023-11-19T10:45:33;18.88;;;3.75;;
25125;SDS011;13106;50.808;5.670;2023-11-19T10:47:59;15.97;;;3.10;;
25125;SDS011;13106;50.808;5.670;2023-11-19T10:50:25;14.53;;;3.03;;
25125;SDS011;13106;50.808;5.670;2023-11-19T10:52:56;15.40;;;3.50;;
25125;SDS011;13106;50.808;5.670;2023-11-19T10:55:28;17.42;;;3.42;;
25125;SDS011;13106;50.808;5.670;2023-11-19T10:57:58;17.17;;;3.20;;
25125;SDS011;13106;50.808;5.670;2023-11-19T11:00:25;16.52;;;3.13;;
25125;SDS011;13106;50.808;5.670;2023-11-19T11:02:54;17.38;;;3.17;;
25125;SDS011;13106;50.808;5.670;2023-11-19T11:05:21;14.10;;;3.28;;
25125;SDS011;13106;50.808;5.670;2023-11-19T11:07:47;15.55;;;3.17;;
25125;SDS011;13106;50.808;5.670;2023-11-19T11:10:15;14.25;;;3.35;;
25125;SDS011;13106;50.808;5.670;2023-11-19T11:12:41;18.83;;;3.42;;
25125;SDS011;13106;50.808;5.670;2023-11-19T11:15:10;13.90;;;3.15;;
25125;SDS011;13106;50.808;5.670;2023-11-19T11:17:40;19.92;;;3.33;;
25125;SDS011;13106;50.808;5.670;2023-11-19T11:20:07;14.02;;;3.20;;
25125;SDS011;13106;50.808;5.670;2023-11-19T11:22:36;18.63;;;3.22;;
25125;SDS011;13106;50.808;5.670;2023-11-19T11:28:16;18.15;;;3.78;;
25125;SDS011;13106;50.808;5.670;2023-11-19T11:36:19;11.93;;;2.75;;
25125;SDS011;13106;50.808;5.670;2023-11-19T11:38:50;12.40;;;3.45;;
25125;SDS011;13106;50.808;5.670;2023-11-19T11:41:22;16.73;;;3.58;;
25125;SDS011;13106;50.808;5.670;2023-11-19T11:43:51;15.23;;;3.27;;
25125;SDS011;13106;50.808;5.670;2023-11-19T11:49:00;16.38;;;3.65;;
25125;SDS011;13106;50.808;5.670;2023-11-19T11:54:11;14.70;;;3.00;;
25125;SDS011;13106;50.808;5.670;2023-11-19T11:56:37;15.98;;;3.80;;
25125;SDS011;13106;50.808;5.670;2023-11-19T11:59:18;16.02;;;4.03;;
25125;SDS011;13106;50.808;5.670;2023-11-19T12:01:59;15.38;;;3.58;;
25125;SDS011;13106;50.808;5.670;2023-11-19T12:04:28;15.65;;;3.95;;
25125;SDS011;13106;50.808;5.670;2023-11-19T12:09:31;12.87;;;3.20;;
25125;SDS011;13106;50.808;5.670;2023-11-19T12:12:07;16.33;;;3.55;;
25125;SDS011;13106;50.808;5.670;2023-11-19T12:20:05;17.08;;;3.20;;
25125;SDS011;13106;50.808;5.670;2023-11-19T12:22:39;19.77;;;4.03;;
25125;SDS011;13106;50.808;5.670;2023-11-19T12:25:06;22.33;;;4.70;;
25125;SDS011;13106;50.808;5.670;2023-11-19T12:27:33;21.77;;;5.65;;
25125;SDS011;13106;50.808;5.670;2023-11-19T12:30:00;16.67;;;3.40;;
25125;SDS011;13106;50.808;5.670;2023-11-19T12:32:26;19.77;;;4.17;;
25125;SDS011;13106;50.808;5.670;2023-11-19T12:34:52;19.77;;;3.37;;
25125;SDS011;13106;50.808;5.670;2023-11-19T12:37:18;18.85;;;3.40;;
25125;SDS011;13106;50.808;5.670;2023-11-19T12:39:44;19.13;;;3.40;;
25125;SDS011;13106;50.808;5.670;2023-11-19T12:42:10;17.33;;;3.63;;
25125;SDS011;13106;50.808;5.670;2023-11-19T12:44:37;14.73;;;3.38;;
25125;SDS011;13106;50.808;5.670;2023-11-19T12:47:04;19.05;;;3.80;;
25125;SDS011;13106;50.808;5.670;2023-11-19T12:49:31;22.80;;;4.55;;
25125;SDS011;13106;50.808;5.670;2023-11-19T12:51:57;20.40;;;8.85;;
25125;SDS011;13106;50.808;5.670;2023-11-19T12:54:36;16.17;;;3.58;;
25125;SDS011;13106;50.808;5.670;2023-11-19T12:57:03;14.77;;;3.15;;
25125;SDS011;13106;50.808;5.670;2023-11-19T12:59:30;20.17;;;6.75;;
25125;SDS011;13106;50.808;5.670;2023-11-19T13:01:59;20.25;;;4.50;;
25125;SDS011;13106;50.808;5.670;2023-11-19T13:04:29;18.50;;;3.85;;
25125;SDS011;13106;50.808;5.670;2023-11-19T13:06:56;18.92;;;4.47;;
25125;SDS011;13106;50.808;5.670;2023-11-19T13:09:26;13.70;;;3.67;;
25125;SDS011;13106;50.808;5.670;2023-11-19T13:11:53;20.27;;;3.17;;
25125;SDS011;13106;50.808;5.670;2023-11-19T13:14:19;15.13;;;3.78;;
25125;SDS011;13106;50.808;5.670;2023-11-19T13:16:46;13.63;;;3.40;;
25125;SDS011;13106;50.808;5.670;2023-11-19T13:19:13;12.07;;;2.42;;
25125;SDS011;13106;50.808;5.670;2023-11-19T13:21:39;10.85;;;2.22;;
25125;SDS011;13106;50.808;5.670;2023-11-19T13:24:06;9.15;;;2.10;;
25125;SDS011;13106;50.808;5.670;2023-11-19T13:26:32;14.07;;;2.70;;
25125;SDS011;13106;50.808;5.670;2023-11-19T13:28:58;13.35;;;2.50;;
25125;SDS011;13106;50.808;5.670;2023-11-19T13:31:24;15.40;;;2.88;;
25125;SDS011;13106;50.808;5.670;2023-11-19T13:33:51;16.48;;;2.95;;
25125;SDS011;13106;50.808;5.670;2023-11-19T13:36:17;14.48;;;2.88;;
25125;SDS011;13106;50.808;5.670;2023-11-19T13:38:43;10.80;;;2.67;;
25125;SDS011;13106;50.808;5.670;2023-11-19T13:41:10;16.43;;;3.93;;
25125;SDS011;13106;50.808;5.670;2023-11-19T13:43:37;16.95;;;3.80;;
25125;SDS011;13106;50.808;5.670;2023-11-19T13:46:03;15.68;;;3.10;;
25125;SDS011;13106;50.808;5.670;2023-11-19T13:48:29;15.93;;;2.90;;
25125;SDS011;13106;50.808;5.670;2023-11-19T13:50:55;19.00;;;3.47;;
25125;SDS011;13106;50.808;5.670;2023-11-19T13:53:22;18.45;;;3.50;;
25125;SDS011;13106;50.808;5.670;2023-11-19T13:55:48;15.55;;;2.88;;
25125;SDS011;13106;50.808;5.670;2023-11-19T13:58:15;14.15;;;2.88;;
25125;SDS011;13106;50.808;5.670;2023-11-19T14:00:41;15.32;;;2.83;;
25125;SDS011;13106;50.808;5.670;2023-11-19T14:03:08;18.48;;;3.45;;
25125;SDS011;13106;50.808;5.670;2023-11-19T14:05:36;15.35;;;3.25;;
25125;SDS011;13106;50.808;5.670;2023-11-19T14:08:02;17.80;;;2.92;;
25125;SDS011;13106;50.808;5.670;2023-11-19T14:10:28;14.20;;;3.13;;
25125;SDS011;13106;50.808;5.670;2023-11-19T14:12:54;14.70;;;2.88;;
25125;SDS011;13106;50.808;5.670;2023-11-19T14:15:20;13.27;;;2.88;;
25125;SDS011;13106;50.808;5.670;2023-11-19T14:17:46;15.98;;;3.30;;
25125;SDS011;13106;50.808;5.670;2023-11-19T14:20:12;18.17;;;3.53;;
25125;SDS011;13106;50.808;5.670;2023-11-19T14:22:39;14.33;;;3.10;;
25125;SDS011;13106;50.808;5.670;2023-11-19T14:25:06;17.88;;;3.38;;
25125;SDS011;13106;50.808;5.670;2023-11-19T14:27:35;17.45;;;3.30;;
25125;SDS011;13106;50.808;5.670;2023-11-19T14:30:03;20.77;;;3.40;;
25125;SDS011;13106;50.808;5.670;2023-11-19T14:32:29;17.35;;;3.65;;
25125;SDS011;13106;50.808;5.670;2023-11-19T14:34:55;25.13;;;7.30;;
25125;SDS011;13106;50.808;5.670;2023-11-19T14:37:21;16.52;;;3.42;;
25125;SDS011;13106;50.808;5.670;2023-11-19T14:39:47;18.20;;;3.20;;
25125;SDS011;13106;50.808;5.670;2023-11-19T14:42:15;20.08;;;4.10;;
25125;SDS011;13106;50.808;5.670;2023-11-19T14:44:41;19.05;;;4.40;;
25125;SDS011;13106;50.808;5.670;2023-11-19T14:47:08;19.65;;;3.95;;
25125;SDS011;13106;50.808;5.670;2023-11-19T14:49:37;19.23;;;4.10;;
25125;SDS011;13106;50.808;5.670;2023-11-19T14:52:03;15.60;;;3.13;;
25125;SDS011;13106;50.808;5.670;2023-11-19T14:54:30;20.20;;;3.80;;
25125;SDS011;13106;50.808;5.670;2023-11-19T14:56:56;16.27;;;3.25;;
25125;SDS011;13106;50.808;5.670;2023-11-19T14:59:24;15.38;;;3.17;;